sensor_id;sensor_type;location;lat;lon;timestamp;temperature;humidity
60868;DHT22;46702;48.370;10.794;2023-08-01T00:00:06;17.30;99.90
60868;DHT22;46702;48.370;10.794;2023-08-01T00:02:33;17.30;99.90
60868;DHT22;46702;48.370;10.794;2023-08-01T00:04:59;17.20;99.90
60868;DHT22;46702;48.370;10.794;2023-08-01T00:07:27;17.10;99.90
60868;DHT22;46702;48.370;10.794;2023-08-01T00:09:52;17.20;99.90
60868;DHT22;46702;48.370;10.794;2023-08-01T00:12:18;17.10;99.90
60868;DHT22;46702;48.370;10.794;2023-08-01T00:14:44;16.90;99.90
60868;DHT22;46702;48.370;10.794;2023-08-01T00:17:09;16.90;99.90
60868;DHT22;46702;48.370;10.794;2023-08-01T00:19:35;17.00;99.90
60868;DHT22;46702;48.370;10.794;2023-08-01T00:22:01;17.00;99.90
60868;DHT22;46702;48.370;10.794;2023-08-01T00:24:26;17.10;99.90
60868;DHT22;46702;48.370;10.794;2023-08-01T00:26:52;17.10;99.90
60868;DHT22;46702;48.370;10.794;2023-08-01T00:29:21;17.10;99.90
60868;DHT22;46702;48.370;10.794;2023-08-01T00:31:46;17.10;99.90
60868;DHT22;46702;48.370;10.794;2023-08-01T00:34:12;17.20;99.90
60868;DHT22;46702;48.370;10.794;2023-08-01T00:36:37;17.20;99.90
60868;DHT22;46702;48.370;10.794;2023-08-01T00:39:03;17.20;99.90
60868;DHT22;46702;48.370;10.794;2023-08-01T00:41:29;17.20;99.90
60868;DHT22;46702;48.370;10.794;2023-08-01T00:43:54;17.20;99.90
60868;DHT22;46702;48.370;10.794;2023-08-01T00:46:20;17.30;99.90
60868;DHT22;46702;48.370;10.794;2023-08-01T00:48:46;17.30;99.90
60868;DHT22;46702;48.370;10.794;2023-08-01T00:51:12;17.30;99.90
60868;DHT22;46702;48.370;10.794;2023-08-01T00:53:39;17.30;99.90
60868;DHT22;46702;48.370;10.794;2023-08-01T00:56:05;17.30;99.90
60868;DHT22;46702;48.370;10.794;2023-08-01T00:58:30;17.40;99.90
60868;DHT22;46702;48.370;10.794;2023-08-01T01:00:56;17.40;99.90
60868;DHT22;46702;48.370;10.794;2023-08-01T01:03:22;17.40;99.90
60868;DHT22;46702;48.370;10.794;2023-08-01T01:06:01;17.40;99.90
60868;DHT22;46702;48.370;10.794;2023-08-01T01:08:31;17.30;99.90
60868;DHT22;46702;48.370;10.794;2023-08-01T01:10:57;17.30;99.90
60868;DHT22;46702;48.370;10.794;2023-08-01T01:13:22;17.40;99.90
60868;DHT22;46702;48.370;10.794;2023-08-01T01:15:48;17.30;99.90
60868;DHT22;46702;48.370;10.794;2023-08-01T01:18:13;17.40;99.90
60868;DHT22;46702;48.370;10.794;2023-08-01T01:20:39;17.40;99.90
60868;DHT22;46702;48.370;10.794;2023-08-01T01:23:05;17.40;99.90
60868;DHT22;46702;48.370;10.794;2023-08-01T01:25:32;17.40;99.90
60868;DHT22;46702;48.370;10.794;2023-08-01T01:27:59;17.40;99.90
60868;DHT22;46702;48.370;10.794;2023-08-01T01:30:27;17.40;99.90
60868;DHT22;46702;48.370;10.794;2023-08-01T01:32:54;17.40;99.90
60868;DHT22;46702;48.370;10.794;2023-08-01T01:35:19;17.40;99.90
60868;DHT22;46702;48.370;10.794;2023-08-01T01:37:45;17.40;99.90
60868;DHT22;46702;48.370;10.794;2023-08-01T01:40:11;17.40;99.90
60868;DHT22;46702;48.370;10.794;2023-08-01T01:42:37;17.40;99.90
60868;DHT22;46702;48.370;10.794;2023-08-01T01:45:03;17.50;99.90
60868;DHT22;46702;48.370;10.794;2023-08-01T01:47:28;17.40;99.90
60868;DHT22;46702;48.370;10.794;2023-08-01T01:49:54;17.40;99.90
60868;DHT22;46702;48.370;10.794;2023-08-01T01:52:20;17.40;99.90
60868;DHT22;46702;48.370;10.794;2023-08-01T01:54:45;17.40;99.90
60868;DHT22;46702;48.370;10.794;2023-08-01T01:57:11;17.30;99.90
60868;DHT22;46702;48.370;10.794;2023-08-01T01:59:36;17.20;99.90
60868;DHT22;46702;48.370;10.794;2023-08-01T02:02:02;17.30;99.90
60868;DHT22;46702;48.370;10.794;2023-08-01T02:04:29;17.20;99.90
60868;DHT22;46702;48.370;10.794;2023-08-01T02:06:55;17.30;99.90
60868;DHT22;46702;48.370;10.794;2023-08-01T02:09:21;17.20;99.90
60868;DHT22;46702;48.370;10.794;2023-08-01T02:11:46;17.20;99.90
60868;DHT22;46702;48.370;10.794;2023-08-01T02:14:13;17.20;99.90
60868;DHT22;46702;48.370;10.794;2023-08-01T02:16:38;17.30;99.90
60868;DHT22;46702;48.370;10.794;2023-08-01T02:19:04;17.30;99.90
60868;DHT22;46702;48.370;10.794;2023-08-01T02:21:30;17.30;99.90
60868;DHT22;46702;48.370;10.794;2023-08-01T02:23:55;17.30;99.90
60868;DHT22;46702;48.370;10.794;2023-08-01T02:26:21;17.30;99.90
60868;DHT22;46702;48.370;10.794;2023-08-01T02:28:48;17.30;99.90
60868;DHT22;46702;48.370;10.794;2023-08-01T02:31:15;17.30;99.90
60868;DHT22;46702;48.370;10.794;2023-08-01T02:33:41;17.20;99.90
60868;DHT22;46702;48.370;10.794;2023-08-01T02:36:06;17.20;99.90
60868;DHT22;46702;48.370;10.794;2023-08-01T02:38:32;17.10;99.90
60868;DHT22;46702;48.370;10.794;2023-08-01T02:40:57;17.10;99.90
60868;DHT22;46702;48.370;10.794;2023-08-01T02:43:23;17.10;99.90
60868;DHT22;46702;48.370;10.794;2023-08-01T02:45:49;17.10;99.90
60868;DHT22;46702;48.370;10.794;2023-08-01T02:48:15;17.00;99.90
60868;DHT22;46702;48.370;10.794;2023-08-01T02:50:40;16.90;99.90
60868;DHT22;46702;48.370;10.794;2023-08-01T02:53:06;17.00;99.90
60868;DHT22;46702;48.370;10.794;2023-08-01T02:55:32;17.10;99.90
60868;DHT22;46702;48.370;10.794;2023-08-01T02:57:57;17.00;99.90
60868;DHT22;46702;48.370;10.794;2023-08-01T03:00:23;17.00;99.90
60868;DHT22;46702;48.370;10.794;2023-08-01T03:02:48;17.00;99.90
60868;DHT22;46702;48.370;10.794;2023-08-01T03:05:14;16.90;99.90
60868;DHT22;46702;48.370;10.794;2023-08-01T03:07:39;16.80;99.90
60868;DHT22;46702;48.370;10.794;2023-08-01T03:10:05;16.90;99.90
60868;DHT22;46702;48.370;10.794;2023-08-01T03:12:32;16.90;99.90
60868;DHT22;46702;48.370;10.794;2023-08-01T03:14:58;16.80;99.90
60868;DHT22;46702;48.370;10.794;2023-08-01T03:17:23;16.80;99.90
60868;DHT22;46702;48.370;10.794;2023-08-01T03:19:49;16.80;99.90
60868;DHT22;46702;48.370;10.794;2023-08-01T03:22:15;16.80;99.90
60868;DHT22;46702;48.370;10.794;2023-08-01T03:24:41;16.80;99.90
60868;DHT22;46702;48.370;10.794;2023-08-01T03:27:06;16.80;99.90
60868;DHT22;46702;48.370;10.794;2023-08-01T03:29:32;16.70;99.90
60868;DHT22;46702;48.370;10.794;2023-08-01T03:31:58;16.70;99.90
60868;DHT22;46702;48.370;10.794;2023-08-01T03:34:23;16.70;99.90
60868;DHT22;46702;48.370;10.794;2023-08-01T03:36:49;16.60;99.90
60868;DHT22;46702;48.370;10.794;2023-08-01T03:39:15;16.60;99.90
60868;DHT22;46702;48.370;10.794;2023-08-01T03:41:43;16.60;99.90
60868;DHT22;46702;48.370;10.794;2023-08-01T03:44:09;16.60;99.90
60868;DHT22;46702;48.370;10.794;2023-08-01T03:46:34;16.60;99.90
60868;DHT22;46702;48.370;10.794;2023-08-01T03:49:00;16.60;99.90
60868;DHT22;46702;48.370;10.794;2023-08-01T03:51:25;16.60;99.90
60868;DHT22;46702;48.370;10.794;2023-08-01T03:53:51;16.60;99.90
60868;DHT22;46702;48.370;10.794;2023-08-01T03:56:17;16.60;99.90
60868;DHT22;46702;48.370;10.794;2023-08-01T03:58:42;16.60;99.90
60868;DHT22;46702;48.370;10.794;2023-08-01T04:01:08;16.60;99.90
60868;DHT22;46702;48.370;10.794;2023-08-01T04:03:33;16.60;99.90
60868;DHT22;46702;48.370;10.794;2023-08-01T04:05:59;16.60;99.90
60868;DHT22;46702;48.370;10.794;2023-08-01T04:08:24;16.60;99.90
60868;DHT22;46702;48.370;10.794;2023-08-01T04:10:50;16.60;99.90
60868;DHT22;46702;48.370;10.794;2023-08-01T04:13:16;16.60;99.90
60868;DHT22;46702;48.370;10.794;2023-08-01T04:15:41;16.60;99.90
60868;DHT22;46702;48.370;10.794;2023-08-01T04:18:07;16.60;99.90
60868;DHT22;46702;48.370;10.794;2023-08-01T04:20:33;16.60;99.90
60868;DHT22;46702;48.370;10.794;2023-08-01T04:22:58;16.60;99.90
60868;DHT22;46702;48.370;10.794;2023-08-01T04:25:24;16.60;99.90
60868;DHT22;46702;48.370;10.794;2023-08-01T04:27:52;16.60;99.90
60868;DHT22;46702;48.370;10.794;2023-08-01T04:30:17;16.60;99.90
60868;DHT22;46702;48.370;10.794;2023-08-01T04:32:43;16.60;99.90
60868;DHT22;46702;48.370;10.794;2023-08-01T04:35:09;16.60;99.90
60868;DHT22;46702;48.370;10.794;2023-08-01T04:37:34;16.60;99.90
60868;DHT22;46702;48.370;10.794;2023-08-01T04:40:00;16.60;99.90
60868;DHT22;46702;48.370;10.794;2023-08-01T04:42:25;16.60;99.90
60868;DHT22;46702;48.370;10.794;2023-08-01T04:44:51;16.70;99.90
60868;DHT22;46702;48.370;10.794;2023-08-01T04:47:17;16.60;99.90
60868;DHT22;46702;48.370;10.794;2023-08-01T04:49:43;16.60;99.90
60868;DHT22;46702;48.370;10.794;2023-08-01T04:52:08;16.60;99.90
60868;DHT22;46702;48.370;10.794;2023-08-01T04:54:34;16.60;99.90
60868;DHT22;46702;48.370;10.794;2023-08-01T04:56:59;16.60;99.90
60868;DHT22;46702;48.370;10.794;2023-08-01T04:59:25;16.70;99.90
60868;DHT22;46702;48.370;10.794;2023-08-01T05:01:51;16.70;99.90
60868;DHT22;46702;48.370;10.794;2023-08-01T05:04:16;16.70;99.90
60868;DHT22;46702;48.370;10.794;2023-08-01T05:06:42;16.70;99.90
60868;DHT22;46702;48.370;10.794;2023-08-01T05:09:07;16.70;99.90
60868;DHT22;46702;48.370;10.794;2023-08-01T05:11:33;16.70;99.90
60868;DHT22;46702;48.370;10.794;2023-08-01T05:13:59;16.70;99.90
60868;DHT22;46702;48.370;10.794;2023-08-01T05:16:24;16.70;99.90
60868;DHT22;46702;48.370;10.794;2023-08-01T05:18:50;16.70;99.90
60868;DHT22;46702;48.370;10.794;2023-08-01T05:21:15;16.70;99.90
60868;DHT22;46702;48.370;10.794;2023-08-01T05:23:41;16.70;99.90
60868;DHT22;46702;48.370;10.794;2023-08-01T05:26:06;16.80;99.90
60868;DHT22;46702;48.370;10.794;2023-08-01T05:28:32;16.70;99.90
60868;DHT22;46702;48.370;10.794;2023-08-01T05:30:58;16.80;99.90
60868;DHT22;46702;48.370;10.794;2023-08-01T05:33:23;16.80;99.90
60868;DHT22;46702;48.370;10.794;2023-08-01T05:35:49;16.80;99.90
60868;DHT22;46702;48.370;10.794;2023-08-01T05:38:15;16.90;99.90
60868;DHT22;46702;48.370;10.794;2023-08-01T05:40:41;16.90;99.90
60868;DHT22;46702;48.370;10.794;2023-08-01T05:43:07;16.90;99.90
60868;DHT22;46702;48.370;10.794;2023-08-01T05:45:34;16.90;99.90
60868;DHT22;46702;48.370;10.794;2023-08-01T05:48:01;16.90;99.90
60868;DHT22;46702;48.370;10.794;2023-08-01T05:50:27;16.90;99.90
60868;DHT22;46702;48.370;10.794;2023-08-01T05:52:53;16.90;99.90
60868;DHT22;46702;48.370;10.794;2023-08-01T05:55:18;16.90;99.90
60868;DHT22;46702;48.370;10.794;2023-08-01T05:57:44;16.90;99.90
60868;DHT22;46702;48.370;10.794;2023-08-01T06:00:10;16.90;99.90
60868;DHT22;46702;48.370;10.794;2023-08-01T06:02:36;17.00;99.90
60868;DHT22;46702;48.370;10.794;2023-08-01T06:05:02;17.00;99.90
60868;DHT22;46702;48.370;10.794;2023-08-01T06:07:27;16.90;99.90
60868;DHT22;46702;48.370;10.794;2023-08-01T06:09:53;17.00;99.90
60868;DHT22;46702;48.370;10.794;2023-08-01T06:12:19;17.00;99.90
60868;DHT22;46702;48.370;10.794;2023-08-01T06:14:45;17.00;99.90
60868;DHT22;46702;48.370;10.794;2023-08-01T06:17:11;17.00;99.90
60868;DHT22;46702;48.370;10.794;2023-08-01T06:19:37;17.00;99.90
60868;DHT22;46702;48.370;10.794;2023-08-01T06:22:02;17.00;99.90
60868;DHT22;46702;48.370;10.794;2023-08-01T06:24:28;17.00;99.90
60868;DHT22;46702;48.370;10.794;2023-08-01T06:26:53;17.10;99.90
60868;DHT22;46702;48.370;10.794;2023-08-01T06:29:19;17.10;99.90
60868;DHT22;46702;48.370;10.794;2023-08-01T06:31:45;17.10;99.90
60868;DHT22;46702;48.370;10.794;2023-08-01T06:34:10;17.10;99.90
60868;DHT22;46702;48.370;10.794;2023-08-01T06:36:36;17.10;99.90
60868;DHT22;46702;48.370;10.794;2023-08-01T06:39:02;17.20;99.90
60868;DHT22;46702;48.370;10.794;2023-08-01T06:41:28;17.20;99.90
60868;DHT22;46702;48.370;10.794;2023-08-01T06:43:54;17.30;99.90
60868;DHT22;46702;48.370;10.794;2023-08-01T06:46:29;17.30;99.90
60868;DHT22;46702;48.370;10.794;2023-08-01T06:48:54;17.40;99.90
60868;DHT22;46702;48.370;10.794;2023-08-01T06:51:20;17.50;99.90
60868;DHT22;46702;48.370;10.794;2023-08-01T06:53:46;17.70;99.90
60868;DHT22;46702;48.370;10.794;2023-08-01T06:56:12;17.70;99.90
60868;DHT22;46702;48.370;10.794;2023-08-01T06:58:37;17.80;99.90
60868;DHT22;46702;48.370;10.794;2023-08-01T07:01:03;17.80;99.90
60868;DHT22;46702;48.370;10.794;2023-08-01T07:03:28;17.90;99.90
60868;DHT22;46702;48.370;10.794;2023-08-01T07:05:54;18.10;99.90
60868;DHT22;46702;48.370;10.794;2023-08-01T07:08:20;18.20;99.90
60868;DHT22;46702;48.370;10.794;2023-08-01T07:10:46;18.20;99.90
60868;DHT22;46702;48.370;10.794;2023-08-01T07:13:12;18.30;99.90
60868;DHT22;46702;48.370;10.794;2023-08-01T07:15:38;18.30;99.90
60868;DHT22;46702;48.370;10.794;2023-08-01T07:18:03;18.40;99.90
60868;DHT22;46702;48.370;10.794;2023-08-01T07:20:29;18.50;99.90
60868;DHT22;46702;48.370;10.794;2023-08-01T07:22:55;18.70;99.90
60868;DHT22;46702;48.370;10.794;2023-08-01T07:25:20;18.90;99.90
60868;DHT22;46702;48.370;10.794;2023-08-01T07:27:47;19.00;99.90
60868;DHT22;46702;48.370;10.794;2023-08-01T07:30:13;18.90;99.90
60868;DHT22;46702;48.370;10.794;2023-08-01T07:32:38;18.90;99.90
60868;DHT22;46702;48.370;10.794;2023-08-01T07:35:05;18.80;99.90
60868;DHT22;46702;48.370;10.794;2023-08-01T07:37:33;18.80;99.90
60868;DHT22;46702;48.370;10.794;2023-08-01T07:39:59;18.80;99.90
60868;DHT22;46702;48.370;10.794;2023-08-01T07:42:24;18.70;99.90
60868;DHT22;46702;48.370;10.794;2023-08-01T07:44:50;18.70;99.90
60868;DHT22;46702;48.370;10.794;2023-08-01T07:47:16;18.50;99.90
60868;DHT22;46702;48.370;10.794;2023-08-01T07:49:41;18.50;99.90
60868;DHT22;46702;48.370;10.794;2023-08-01T07:52:07;18.40;99.90
60868;DHT22;46702;48.370;10.794;2023-08-01T07:54:33;18.40;99.90
60868;DHT22;46702;48.370;10.794;2023-08-01T07:56:58;18.40;99.90
60868;DHT22;46702;48.370;10.794;2023-08-01T07:59:24;18.40;99.90
60868;DHT22;46702;48.370;10.794;2023-08-01T08:01:49;18.50;99.90
60868;DHT22;46702;48.370;10.794;2023-08-01T08:04:15;18.50;99.90
60868;DHT22;46702;48.370;10.794;2023-08-01T08:06:41;18.50;99.90
60868;DHT22;46702;48.370;10.794;2023-08-01T08:09:06;18.50;99.90
60868;DHT22;46702;48.370;10.794;2023-08-01T08:11:33;18.50;99.90
60868;DHT22;46702;48.370;10.794;2023-08-01T08:13:59;18.40;99.90
60868;DHT22;46702;48.370;10.794;2023-08-01T08:16:25;18.50;99.90
60868;DHT22;46702;48.370;10.794;2023-08-01T08:18:50;18.50;99.90
60868;DHT22;46702;48.370;10.794;2023-08-01T08:21:16;18.60;99.90
60868;DHT22;46702;48.370;10.794;2023-08-01T08:23:42;18.60;99.90
60868;DHT22;46702;48.370;10.794;2023-08-01T08:26:07;18.60;99.90
60868;DHT22;46702;48.370;10.794;2023-08-01T08:28:33;18.60;99.90
60868;DHT22;46702;48.370;10.794;2023-08-01T08:31:00;18.60;99.90
60868;DHT22;46702;48.370;10.794;2023-08-01T08:33:27;18.60;99.90
60868;DHT22;46702;48.370;10.794;2023-08-01T08:35:52;18.70;99.90
60868;DHT22;46702;48.370;10.794;2023-08-01T08:38:18;18.80;99.90
60868;DHT22;46702;48.370;10.794;2023-08-01T08:41:06;18.90;99.90
60868;DHT22;46702;48.370;10.794;2023-08-01T08:43:34;19.00;99.90
60868;DHT22;46702;48.370;10.794;2023-08-01T08:46:02;19.00;99.90
60868;DHT22;46702;48.370;10.794;2023-08-01T08:48:28;19.10;99.90
60868;DHT22;46702;48.370;10.794;2023-08-01T08:50:57;19.20;99.90
60868;DHT22;46702;48.370;10.794;2023-08-01T08:53:24;19.20;99.90
60868;DHT22;46702;48.370;10.794;2023-08-01T08:55:50;19.20;99.90
60868;DHT22;46702;48.370;10.794;2023-08-01T08:58:16;19.30;99.90
60868;DHT22;46702;48.370;10.794;2023-08-01T09:00:43;19.40;99.90
60868;DHT22;46702;48.370;10.794;2023-08-01T09:03:09;19.40;99.90
60868;DHT22;46702;48.370;10.794;2023-08-01T09:05:40;19.50;99.90
60868;DHT22;46702;48.370;10.794;2023-08-01T09:08:16;19.50;99.90
60868;DHT22;46702;48.370;10.794;2023-08-01T09:10:43;19.60;99.90
60868;DHT22;46702;48.370;10.794;2023-08-01T09:13:09;19.90;99.90
60868;DHT22;46702;48.370;10.794;2023-08-01T09:15:35;20.10;99.90
60868;DHT22;46702;48.370;10.794;2023-08-01T09:18:06;20.00;99.90
60868;DHT22;46702;48.370;10.794;2023-08-01T09:20:46;19.80;99.90
60868;DHT22;46702;48.370;10.794;2023-08-01T09:23:12;19.90;99.90
60868;DHT22;46702;48.370;10.794;2023-08-01T09:25:38;20.10;99.90
60868;DHT22;46702;48.370;10.794;2023-08-01T09:28:17;20.10;99.90
60868;DHT22;46702;48.370;10.794;2023-08-01T09:30:47;19.90;99.90
60868;DHT22;46702;48.370;10.794;2023-08-01T09:33:13;19.90;99.90
60868;DHT22;46702;48.370;10.794;2023-08-01T09:35:39;19.70;99.90
60868;DHT22;46702;48.370;10.794;2023-08-01T09:38:04;19.60;99.90
60868;DHT22;46702;48.370;10.794;2023-08-01T09:40:37;19.40;99.90
60868;DHT22;46702;48.370;10.794;2023-08-01T09:43:03;19.20;99.90
60868;DHT22;46702;48.370;10.794;2023-08-01T09:45:29;19.10;99.90
60868;DHT22;46702;48.370;10.794;2023-08-01T09:47:54;18.90;99.90
60868;DHT22;46702;48.370;10.794;2023-08-01T09:50:22;18.70;99.90
60868;DHT22;46702;48.370;10.794;2023-08-01T09:52:47;18.60;99.90
60868;DHT22;46702;48.370;10.794;2023-08-01T09:55:32;18.40;99.90
60868;DHT22;46702;48.370;10.794;2023-08-01T09:57:58;18.40;99.90
60868;DHT22;46702;48.370;10.794;2023-08-01T10:00:28;18.20;99.90
60868;DHT22;46702;48.370;10.794;2023-08-01T10:02:59;18.10;99.90
60868;DHT22;46702;48.370;10.794;2023-08-01T10:05:30;18.00;99.90
60868;DHT22;46702;48.370;10.794;2023-08-01T10:08:01;17.90;99.90
60868;DHT22;46702;48.370;10.794;2023-08-01T10:10:28;17.70;99.90
60868;DHT22;46702;48.370;10.794;2023-08-01T10:12:57;17.70;99.90
60868;DHT22;46702;48.370;10.794;2023-08-01T10:15:27;17.60;99.90
60868;DHT22;46702;48.370;10.794;2023-08-01T10:17:53;17.60;99.90
60868;DHT22;46702;48.370;10.794;2023-08-01T10:20:20;17.60;99.90
60868;DHT22;46702;48.370;10.794;2023-08-01T10:22:49;17.50;99.90
60868;DHT22;46702;48.370;10.794;2023-08-01T10:25:15;17.40;99.90
60868;DHT22;46702;48.370;10.794;2023-08-01T10:27:41;17.40;99.90
60868;DHT22;46702;48.370;10.794;2023-08-01T10:30:07;17.40;99.90
60868;DHT22;46702;48.370;10.794;2023-08-01T10:32:36;17.50;99.90
60868;DHT22;46702;48.370;10.794;2023-08-01T10:35:03;17.50;99.90
60868;DHT22;46702;48.370;10.794;2023-08-01T10:37:42;17.60;99.90
60868;DHT22;46702;48.370;10.794;2023-08-01T10:40:09;17.70;99.90
60868;DHT22;46702;48.370;10.794;2023-08-01T10:42:44;17.80;99.90
60868;DHT22;46702;48.370;10.794;2023-08-01T10:45:21;17.90;99.90
60868;DHT22;46702;48.370;10.794;2023-08-01T10:47:49;17.90;99.90
60868;DHT22;46702;48.370;10.794;2023-08-01T10:50:16;18.10;99.90
60868;DHT22;46702;48.370;10.794;2023-08-01T10:52:42;18.10;99.90
60868;DHT22;46702;48.370;10.794;2023-08-01T10:55:08;18.10;99.90
60868;DHT22;46702;48.370;10.794;2023-08-01T10:57:36;18.20;99.90
60868;DHT22;46702;48.370;10.794;2023-08-01T11:00:03;18.30;99.90
60868;DHT22;46702;48.370;10.794;2023-08-01T11:02:34;18.40;99.90
60868;DHT22;46702;48.370;10.794;2023-08-01T11:05:02;18.40;99.90
60868;DHT22;46702;48.370;10.794;2023-08-01T11:07:28;18.40;99.90
60868;DHT22;46702;48.370;10.794;2023-08-01T11:10:10;18.40;99.90
60868;DHT22;46702;48.370;10.794;2023-08-01T11:12:37;18.40;99.90
60868;DHT22;46702;48.370;10.794;2023-08-01T11:15:05;18.40;99.90
60868;DHT22;46702;48.370;10.794;2023-08-01T11:17:33;18.30;99.90
60868;DHT22;46702;48.370;10.794;2023-08-01T11:20:06;18.20;99.90
60868;DHT22;46702;48.370;10.794;2023-08-01T11:22:33;18.20;99.90
60868;DHT22;46702;48.370;10.794;2023-08-01T11:24:59;18.00;99.90
60868;DHT22;46702;48.370;10.794;2023-08-01T11:27:27;17.90;99.90
60868;DHT22;46702;48.370;10.794;2023-08-01T11:29:54;17.80;99.90
60868;DHT22;46702;48.370;10.794;2023-08-01T11:32:20;17.70;99.90
60868;DHT22;46702;48.370;10.794;2023-08-01T11:34:47;17.60;99.90
60868;DHT22;46702;48.370;10.794;2023-08-01T11:37:14;17.60;99.90
60868;DHT22;46702;48.370;10.794;2023-08-01T11:39:40;17.60;99.90
60868;DHT22;46702;48.370;10.794;2023-08-01T11:42:06;17.60;99.90
60868;DHT22;46702;48.370;10.794;2023-08-01T11:44:32;17.60;99.90
60868;DHT22;46702;48.370;10.794;2023-08-01T11:46:58;17.70;99.90
60868;DHT22;46702;48.370;10.794;2023-08-01T11:49:23;17.90;99.90
60868;DHT22;46702;48.370;10.794;2023-08-01T11:51:49;17.90;99.90
60868;DHT22;46702;48.370;10.794;2023-08-01T11:54:15;17.80;99.90
60868;DHT22;46702;48.370;10.794;2023-08-01T11:56:42;17.80;99.90
60868;DHT22;46702;48.370;10.794;2023-08-01T11:59:16;17.80;99.90
60868;DHT22;46702;48.370;10.794;2023-08-01T12:01:46;17.90;99.90
60868;DHT22;46702;48.370;10.794;2023-08-01T12:04:23;17.90;99.90
60868;DHT22;46702;48.370;10.794;2023-08-01T12:06:49;17.90;99.90
60868;DHT22;46702;48.370;10.794;2023-08-01T12:09:15;17.80;99.90
60868;DHT22;46702;48.370;10.794;2023-08-01T12:11:41;17.70;99.90
60868;DHT22;46702;48.370;10.794;2023-08-01T12:14:09;17.40;99.90
60868;DHT22;46702;48.370;10.794;2023-08-01T12:16:35;17.20;99.90
60868;DHT22;46702;48.370;10.794;2023-08-01T12:19:01;17.30;99.90
60868;DHT22;46702;48.370;10.794;2023-08-01T12:21:27;17.20;99.90
60868;DHT22;46702;48.370;10.794;2023-08-01T12:23:53;17.20;99.90
60868;DHT22;46702;48.370;10.794;2023-08-01T12:26:18;17.40;99.90
60868;DHT22;46702;48.370;10.794;2023-08-01T12:28:44;17.50;99.90
60868;DHT22;46702;48.370;10.794;2023-08-01T12:31:09;17.60;99.90
60868;DHT22;46702;48.370;10.794;2023-08-01T12:33:35;17.70;99.90
60868;DHT22;46702;48.370;10.794;2023-08-01T12:36:02;17.70;99.90
60868;DHT22;46702;48.370;10.794;2023-08-01T12:38:28;17.50;99.90
60868;DHT22;46702;48.370;10.794;2023-08-01T12:40:54;17.50;99.90
60868;DHT22;46702;48.370;10.794;2023-08-01T12:43:20;17.50;99.90
60868;DHT22;46702;48.370;10.794;2023-08-01T12:45:46;17.60;99.90
60868;DHT22;46702;48.370;10.794;2023-08-01T12:48:13;17.80;99.90
60868;DHT22;46702;48.370;10.794;2023-08-01T12:50:43;18.10;99.90
60868;DHT22;46702;48.370;10.794;2023-08-01T12:53:09;18.40;99.90
60868;DHT22;46702;48.370;10.794;2023-08-01T12:55:36;18.60;99.90
60868;DHT22;46702;48.370;10.794;2023-08-01T12:58:01;18.70;99.90
60868;DHT22;46702;48.370;10.794;2023-08-01T13:00:27;18.60;99.90
60868;DHT22;46702;48.370;10.794;2023-08-01T13:02:53;18.60;99.90
60868;DHT22;46702;48.370;10.794;2023-08-01T13:05:19;18.60;99.90
60868;DHT22;46702;48.370;10.794;2023-08-01T13:07:45;18.60;99.90
60868;DHT22;46702;48.370;10.794;2023-08-01T13:10:11;18.50;99.90
60868;DHT22;46702;48.370;10.794;2023-08-01T13:12:37;18.50;99.90
60868;DHT22;46702;48.370;10.794;2023-08-01T13:15:03;18.40;99.90
60868;DHT22;46702;48.370;10.794;2023-08-01T13:17:30;18.40;99.90
60868;DHT22;46702;48.370;10.794;2023-08-01T13:19:55;18.30;99.90
60868;DHT22;46702;48.370;10.794;2023-08-01T13:22:21;18.30;99.90
60868;DHT22;46702;48.370;10.794;2023-08-01T13:24:47;18.20;99.90
60868;DHT22;46702;48.370;10.794;2023-08-01T13:27:12;18.20;99.90
60868;DHT22;46702;48.370;10.794;2023-08-01T13:29:38;18.20;99.90
60868;DHT22;46702;48.370;10.794;2023-08-01T13:32:06;18.10;99.90
60868;DHT22;46702;48.370;10.794;2023-08-01T13:34:32;18.10;99.90
60868;DHT22;46702;48.370;10.794;2023-08-01T13:36:57;18.20;99.90
60868;DHT22;46702;48.370;10.794;2023-08-01T13:39:23;18.10;99.90
60868;DHT22;46702;48.370;10.794;2023-08-01T13:41:49;18.10;99.90
60868;DHT22;46702;48.370;10.794;2023-08-01T13:44:14;18.10;99.90
60868;DHT22;46702;48.370;10.794;2023-08-01T13:46:40;18.10;99.90
60868;DHT22;46702;48.370;10.794;2023-08-01T13:49:06;18.10;99.90
60868;DHT22;46702;48.370;10.794;2023-08-01T13:51:34;18.50;99.90
60868;DHT22;46702;48.370;10.794;2023-08-01T13:54:00;18.70;99.90
60868;DHT22;46702;48.370;10.794;2023-08-01T13:56:26;19.00;99.90
60868;DHT22;46702;48.370;10.794;2023-08-01T13:58:52;19.40;99.90
60868;DHT22;46702;48.370;10.794;2023-08-01T14:01:18;19.80;99.90
60868;DHT22;46702;48.370;10.794;2023-08-01T14:03:44;20.10;99.90
60868;DHT22;46702;48.370;10.794;2023-08-01T14:06:12;20.40;99.90
60868;DHT22;46702;48.370;10.794;2023-08-01T14:08:38;20.50;99.90
60868;DHT22;46702;48.370;10.794;2023-08-01T14:11:05;20.60;99.90
60868;DHT22;46702;48.370;10.794;2023-08-01T14:13:32;20.90;99.90
60868;DHT22;46702;48.370;10.794;2023-08-01T14:15:58;21.20;99.90
60868;DHT22;46702;48.370;10.794;2023-08-01T14:18:24;21.20;99.90
60868;DHT22;46702;48.370;10.794;2023-08-01T14:20:49;21.20;99.90
60868;DHT22;46702;48.370;10.794;2023-08-01T14:23:15;21.40;99.90
60868;DHT22;46702;48.370;10.794;2023-08-01T14:25:41;21.40;99.90
60868;DHT22;46702;48.370;10.794;2023-08-01T14:28:07;21.50;99.90
60868;DHT22;46702;48.370;10.794;2023-08-01T14:30:32;21.60;99.90
60868;DHT22;46702;48.370;10.794;2023-08-01T14:33:08;21.70;99.90
60868;DHT22;46702;48.370;10.794;2023-08-01T14:35:35;21.70;99.90
60868;DHT22;46702;48.370;10.794;2023-08-01T14:38:00;21.70;99.90
60868;DHT22;46702;48.370;10.794;2023-08-01T14:40:26;22.00;99.90
60868;DHT22;46702;48.370;10.794;2023-08-01T14:42:52;22.10;99.90
60868;DHT22;46702;48.370;10.794;2023-08-01T14:45:18;22.10;99.90
60868;DHT22;46702;48.370;10.794;2023-08-01T14:47:44;21.80;99.90
60868;DHT22;46702;48.370;10.794;2023-08-01T14:50:11;21.70;99.90
60868;DHT22;46702;48.370;10.794;2023-08-01T14:52:37;21.50;99.90
60868;DHT22;46702;48.370;10.794;2023-08-01T14:55:03;21.30;99.90
60868;DHT22;46702;48.370;10.794;2023-08-01T14:57:28;21.20;99.90
60868;DHT22;46702;48.370;10.794;2023-08-01T14:59:54;21.10;99.90
60868;DHT22;46702;48.370;10.794;2023-08-01T15:02:20;20.90;99.90
60868;DHT22;46702;48.370;10.794;2023-08-01T15:04:50;20.60;99.90
60868;DHT22;46702;48.370;10.794;2023-08-01T15:07:17;20.50;99.90
60868;DHT22;46702;48.370;10.794;2023-08-01T15:09:43;20.30;99.90